Time;durP1;ratioP1;P1;durP2;ratioP2;P2;SDS_P1;SDS_P2;PMS_P1;PMS_P2;Temp;Humidity;BMP_temperature;BMP_pressure;BME280_temperature;BME280_humidity;BME280_pressure;Samples;Min_cycle;Max_cycle;Signal;HPM_P1;HPM_P2
2021/12/21 00:02:23;;;;;;;;;;;;;;;-3.77;100.00;102653.06;5068699;28;19916;-75
2021/12/21 00:04:49;;;;;;;;;;;;;;;-3.76;100.00;102656.47;5053519;28;19962;-76
2021/12/21 00:07:15;;;;;;;;;;;;;;;-3.73;100.00;102656.44;5037514;28;19924;-76
2021/12/21 00:09:41;;;;;;;;;;;;;;;-3.74;100.00;102655.59;5052707;28;19969;-76
2021/12/21 00:12:08;;;;;;;;;;;;;;;-3.76;100.00;102648.78;5055071;28;20389;-75
2021/12/21 00:17:34;;;;;;;;;;;;;;;-3.67;100.00;102643.59;5089099;28;19919;-75
2021/12/21 00:25:29;;;;;;;;;;;;;;;-3.47;100.00;102640.91;5016970;28;20007;-76
2021/12/21 00:27:54;;;;;;;;;;;;;;;-3.54;100.00;102641.81;5055101;28;20053;-77
2021/12/21 00:30:22;;;;;;;;;;;;;;;-3.59;100.00;102638.41;5057561;28;20018;-75
2021/12/21 00:32:48;;;;;;;;;;;;;;;-3.67;100.00;102643.59;5034444;28;20401;-77
2021/12/21 00:35:14;;;;;;;;;;;;;;;-3.73;100.00;102641.91;5050979;28;19920;-77
2021/12/21 00:37:41;;;;;;;;;;;;;;;-3.77;100.00;102642.78;5054540;28;20000;-76
2021/12/21 00:40:10;;;;;;;;;;;;;;;-3.77;100.00;102642.78;5036609;28;19923;-76
2021/12/21 00:42:36;;;;;;;;;;;;;;;-3.78;100.00;102648.78;5044128;28;19935;-76
2021/12/21 00:45:05;;;;;;;;;;;;;;;-3.81;100.00;102643.66;5035985;28;19923;-77
2021/12/21 00:47:33;;;;;;;;;;;;;;;-3.83;100.00;102644.53;5053816;28;19923;-77
2021/12/21 00:50:02;;;;;;;;;;;;;;;-3.84;100.00;102648.81;5052654;28;20019;-76
2021/12/21 00:52:28;;;;;;;;;;;;;;;-3.85;100.00;102641.13;5069375;28;19967;-76
2021/12/21 00:54:54;;;;;;;;;;;;;;;-3.87;100.00;102646.25;5032760;28;19916;-76
2021/12/21 00:57:23;;;;;;;;;;;;;;;-3.94;100.00;102650.56;5037311;28;19920;-76
2021/12/21 00:59:48;;;;;;;;;;;;;;;-3.95;100.00;102648.84;5050274;28;19916;-77
2021/12/21 01:02:14;;;;;;;;;;;;;;;-3.96;100.00;102648.84;5052599;28;20444;-76
2021/12/21 01:04:45;;;;;;;;;;;;;;;-3.98;100.00;102641.16;5071042;28;20424;-76
2021/12/21 01:10:03;;;;;;;;;;;;;;;-3.97;100.00;102639.47;5068060;28;19922;-76
2021/12/21 01:12:40;;;;;;;;;;;;;;;-3.98;100.00;102630.91;5051716;28;19923;-77
2021/12/21 01:15:45;;;;;;;;;;;;;;;-3.99;100.00;102631.78;5084176;28;19916;-75
2021/12/21 01:18:22;;;;;;;;;;;;;;;-3.98;100.00;102635.19;5084832;28;20040;-77
2021/12/21 01:21:24;;;;;;;;;;;;;;;-3.97;100.00;102640.31;5083310;28;20463;-76
2021/12/21 01:36:35;;;;;;;;;;;;;;;-4.14;100.00;102635.25;5052732;28;20003;-77
2021/12/21 01:39:11;;;;;;;;;;;;;;;-4.17;100.00;102630.13;5051111;28;19955;-77
2021/12/21 01:41:51;;;;;;;;;;;;;;;-4.16;100.00;102634.41;5084615;28;19941;-76
2021/12/21 01:49:49;;;;;;;;;;;;;;;-4.19;100.00;102620.75;5066494;28;19920;-76
2021/12/21 01:52:17;;;;;;;;;;;;;;;-4.16;100.00;102620.75;5082980;28;20466;-77
2021/12/21 01:54:42;;;;;;;;;;;;;;;-4.15;100.00;102619.88;5067351;28;19922;-76
2021/12/21 01:57:08;;;;;;;;;;;;;;;-4.15;100.00;102622.44;5069437;28;19916;-76
2021/12/21 01:59:34;;;;;;;;;;;;;;;-4.16;100.00;102619.03;5067988;28;20037;-77
2021/12/21 02:02:00;;;;;;;;;;;;;;;-4.12;100.00;102617.31;5068891;28;19911;-77
2021/12/21 02:04:26;;;;;;;;;;;;;;;-4.09;100.00;102614.72;5068644;28;19920;-78
2021/12/21 02:06:52;;;;;;;;;;;;;;;-4.09;100.00;102613.88;5070991;28;19993;-75
2021/12/21 02:09:19;;;;;;;;;;;;;;;-4.09;100.00;102614.72;5066213;28;19994;-76
2021/12/21 02:11:48;;;;;;;;;;;;;;;-4.12;100.00;102609.63;5068441;28;20381;-77
2021/12/21 02:14:14;;;;;;;;;;;;;;;-4.11;100.00;102607.06;5066973;28;20390;-79
2021/12/21 02:17:09;;;;;;;;;;;;;;;-4.09;100.00;102609.59;5070520;28;19980;-76
2021/12/21 02:19:41;;;;;;;;;;;;;;;-4.08;100.00;102603.63;5087440;28;19965;-77
2021/12/21 02:22:15;;;;;;;;;;;;;;;-4.08;100.00;102606.19;5069820;28;19923;-77
2021/12/21 02:24:50;;;;;;;;;;;;;;;-4.07;100.00;102600.19;5063992;28;19959;-76
2021/12/21 02:27:40;;;;;;;;;;;;;;;-4.08;100.00;102595.09;5053919;28;19920;-78
2021/12/21 02:30:06;;;;;;;;;;;;;;;-4.09;100.00;102596.78;5065668;28;19999;-77
2021/12/21 02:32:32;;;;;;;;;;;;;;;-4.11;100.00;102591.69;5068604;28;20398;-77
2021/12/21 02:34:58;;;;;;;;;;;;;;;-4.12;100.00;102592.53;5054705;28;19923;-78
2021/12/21 02:37:24;;;;;;;;;;;;;;;-4.15;100.00;102589.97;5053417;28;19920;-75
2021/12/21 02:39:50;;;;;;;;;;;;;;;-4.15;100.00;102584.00;5069716;28;19915;-75
2021/12/21 02:42:19;;;;;;;;;;;;;;;-4.14;100.00;102591.69;5049261;28;20003;-76
2021/12/21 02:44:48;;;;;;;;;;;;;;;-4.13;100.00;102577.16;5052665;28;19912;-76
2021/12/21 02:47:14;;;;;;;;;;;;;;;-4.15;100.00;102579.72;5051150;28;20042;-76
2021/12/21 02:49:40;;;;;;;;;;;;;;;-4.17;100.00;102585.72;5049475;28;19994;-76
2021/12/21 02:52:06;;;;;;;;;;;;;;;-4.21;100.00;102592.56;5037390;28;20250;-76
2021/12/21 02:54:32;;;;;;;;;;;;;;;-4.22;100.00;102582.31;5053242;28;20301;-77
2021/12/21 02:56:58;;;;;;;;;;;;;;;-4.25;100.00;102587.47;5053888;28;19920;-76
2021/12/21 02:59:24;;;;;;;;;;;;;;;-4.28;100.00;102585.75;5053234;28;19915;-76
2021/12/21 03:01:49;;;;;;;;;;;;;;;-4.28;100.00;102588.31;5069616;28;19987;-75
2021/12/21 03:04:15;;;;;;;;;;;;;;;-4.29;100.00;102586.63;5050860;28;20312;-76
2021/12/21 03:12:08;;;;;;;;;;;;;;;-4.29;100.00;102581.50;5051827;28;20294;-76
2021/12/21 03:14:35;;;;;;;;;;;;;;;-4.27;100.00;102581.50;5050396;28;19920;-75
2021/12/21 03:17:01;;;;;;;;;;;;;;;-4.27;100.00;102586.63;5070000;28;19920;-76
2021/12/21 03:19:27;;;;;;;;;;;;;;;-4.27;100.00;102587.47;5052824;28;19959;-76
2021/12/21 03:21:54;;;;;;;;;;;;;;;-4.28;100.00;102582.34;5052520;28;20015;-75
2021/12/21 03:24:19;;;;;;;;;;;;;;;-4.28;100.00;102585.75;5069311;28;20014;-75
2021/12/21 03:26:45;;;;;;;;;;;;;;;-4.28;100.00;102580.63;5054328;28;19911;-75
2021/12/21 03:29:10;;;;;;;;;;;;;;;-4.28;100.00;102577.22;5068250;28;19908;-75
2021/12/21 03:31:36;;;;;;;;;;;;;;;-4.26;100.00;102580.63;5053730;28;19912;-76
2021/12/21 03:34:02;;;;;;;;;;;;;;;-4.25;100.00;102582.34;5051756;28;19908;-77
2021/12/21 03:36:27;;;;;;;;;;;;;;;-4.26;100.00;102583.19;5068662;28;19916;-76
2021/12/21 03:39:02;;;;;;;;;;;;;;;-4.33;100.00;102583.22;5053363;28;19919;-76
2021/12/21 03:41:28;;;;;;;;;;;;;;;-4.39;100.00;102575.56;5053198;28;19916;-76
2021/12/21 03:43:55;;;;;;;;;;;;;;;-4.41;100.00;102573.84;5067826;28;20727;-75
2021/12/21 03:46:20;;;;;;;;;;;;;;;-4.39;100.00;102573.00;5032269;28;19916;-77
2021/12/21 03:48:47;;;;;;;;;;;;;;;-4.36;100.00;102567.84;5050661;28;19927;-76
2021/12/21 03:51:17;;;;;;;;;;;;;;;-4.38;100.00;102566.16;5065531;28;19974;-76
2021/12/21 03:53:43;;;;;;;;;;;;;;;-4.36;100.00;102556.75;5085576;28;20411;-76
2021/12/21 03:58:53;;;;;;;;;;;;;;;-4.34;100.00;102568.69;5081038;28;19920;-76
2021/12/21 04:01:19;;;;;;;;;;;;;;;-4.33;100.00;102567.00;5069121;28;19915;-76
2021/12/21 04:03:44;;;;;;;;;;;;;;;-4.32;100.00;102566.13;5050639;28;19943;-76
2021/12/21 04:06:09;;;;;;;;;;;;;;;-4.38;100.00;102569.56;5066644;28;19915;-76
2021/12/21 04:08:35;;;;;;;;;;;;;;;-4.41;100.00;102568.72;5088165;28;19916;-78
2021/12/21 04:11:01;;;;;;;;;;;;;;;-4.43;100.00;102570.44;5071141;28;19947;-77
2021/12/21 04:13:27;;;;;;;;;;;;;;;-4.41;100.00;102567.00;5070482;28;19923;-77
2021/12/21 04:15:54;;;;;;;;;;;;;;;-4.42;100.00;102567.88;5092585;28;19912;-77
2021/12/21 04:18:22;;;;;;;;;;;;;;;-4.41;100.00;102567.00;5040271;28;19920;-78
2021/12/21 04:20:48;;;;;;;;;;;;;;;-4.39;100.00;102574.69;5075041;28;19922;-79
2021/12/21 04:23:13;;;;;;;;;;;;;;;-4.38;100.00;102568.72;5091308;28;20007;-79
2021/12/21 04:25:39;;;;;;;;;;;;;;;-4.41;100.00;102571.28;5058549;28;19950;-79
2021/12/21 04:28:04;;;;;;;;;;;;;;;-4.42;100.00;102573.00;5055602;28;20272;-77
2021/12/21 04:30:30;;;;;;;;;;;;;;;-4.43;100.00;102573.84;5084292;28;19971;-77
2021/12/21 04:32:55;;;;;;;;;;;;;;;-4.43;100.00;102573.84;5059039;28;19923;-78
2021/12/21 04:35:21;;;;;;;;;;;;;;;-4.43;100.00;102575.56;5071543;28;19923;-78
2021/12/21 04:37:52;;;;;;;;;;;;;;;-4.45;100.00;102573.00;5075258;28;19919;-77
2021/12/21 04:40:20;;;;;;;;;;;;;;;-4.46;100.00;102586.69;5072550;28;19916;-77
2021/12/21 04:42:46;;;;;;;;;;;;;;;-4.50;100.00;102574.75;5095184;28;19979;-78
2021/12/21 04:45:11;;;;;;;;;;;;;;;-4.47;100.00;102584.13;5056095;28;20066;-78
2021/12/21 04:47:37;;;;;;;;;;;;;;;-4.47;100.00;102572.16;5060199;28;19979;-77
2021/12/21 04:50:03;;;;;;;;;;;;;;;-4.49;100.00;102573.88;5059337;28;19947;-77
2021/12/21 04:52:28;;;;;;;;;;;;;;;-4.46;100.00;102576.44;5073293;28;20003;-79
2021/12/21 04:54:54;;;;;;;;;;;;;;;-4.50;100.00;102572.19;5059886;28;19916;-77
2021/12/21 04:57:20;;;;;;;;;;;;;;;-4.50;100.00;102577.31;5059412;28;19916;-78
2021/12/21 04:59:45;;;;;;;;;;;;;;;-4.51;100.00;102575.59;5075064;28;19920;-77
2021/12/21 05:02:11;;;;;;;;;;;;;;;-4.53;100.00;102575.59;5055566;28;19952;-78
2021/12/21 05:04:38;;;;;;;;;;;;;;;-4.56;100.00;102575.63;5074480;28;20393;-77
2021/12/21 05:07:04;;;;;;;;;;;;;;;-4.56;100.00;102580.75;5057816;28;19923;-78
2021/12/21 05:09:38;;;;;;;;;;;;;;;-4.59;100.00;102583.31;5071101;28;19912;-77
2021/12/21 05:12:07;;;;;;;;;;;;;;;-4.62;100.00;102575.63;5052602;28;19926;-78
2021/12/21 05:14:32;;;;;;;;;;;;;;;-4.62;100.00;102574.78;5071655;28;20003;-79
2021/12/21 05:16:58;;;;;;;;;;;;;;;-4.62;100.00;102569.66;5074551;28;20010;-78
2021/12/21 05:19:24;;;;;;;;;;;;;;;-4.65;100.00;102575.66;5056745;28;19958;-78
2021/12/21 05:21:49;;;;;;;;;;;;;;;-4.68;100.00;102578.19;5074396;28;19916;-77
2021/12/21 05:24:15;;;;;;;;;;;;;;;-4.74;100.00;102578.22;5056612;28;20492;-78
2021/12/21 05:26:40;;;;;;;;;;;;;;;-4.73;100.00;102575.66;5072295;28;19920;-77
2021/12/21 05:29:06;;;;;;;;;;;;;;;-4.73;100.00;102582.47;5071917;28;19919;-77
2021/12/21 05:31:31;;;;;;;;;;;;;;;-4.75;100.00;102577.34;5074156;28;19912;-77
2021/12/21 05:33:57;;;;;;;;;;;;;;;-4.76;100.00;102587.63;5071979;28;20454;-77
2021/12/21 05:36:23;;;;;;;;;;;;;;;-4.77;100.00;102575.66;5056355;28;19916;-77
2021/12/21 05:38:52;;;;;;;;;;;;;;;-4.78;100.00;102574.81;5090152;28;19923;-78
2021/12/21 05:41:25;;;;;;;;;;;;;;;-4.75;100.00;102581.63;5085664;28;20011;-77
2021/12/21 05:43:51;;;;;;;;;;;;;;;-4.77;100.00;102584.19;5089825;28;20378;-78
2021/12/21 05:46:16;;;;;;;;;;;;;;;-4.75;100.00;102579.06;5072246;28;19920;-78
2021/12/21 05:48:42;;;;;;;;;;;;;;;-4.73;100.00;102578.22;5055455;28;19949;-77
2021/12/21 05:51:08;;;;;;;;;;;;;;;-4.72;100.00;102579.91;5053116;28;19915;-81
2021/12/21 05:53:33;;;;;;;;;;;;;;;-4.71;100.00;102573.06;5073415;28;20323;-77
2021/12/21 05:55:59;;;;;;;;;;;;;;;-4.70;100.00;102578.19;5057727;28;19920;-77
2021/12/21 05:58:24;;;;;;;;;;;;;;;-4.72;100.00;102574.78;5056379;28;20042;-78
2021/12/21 06:00:49;;;;;;;;;;;;;;;-4.71;100.00;102580.75;5057057;28;19938;-78
2021/12/21 06:03:15;;;;;;;;;;;;;;;-4.74;100.00;102573.94;5071614;28;20376;-78
2021/12/21 06:05:41;;;;;;;;;;;;;;;-4.73;100.00;102573.09;5055364;28;19922;-78
2021/12/21 06:08:06;;;;;;;;;;;;;;;-4.73;100.00;102574.78;5050567;28;20385;-77
2021/12/21 06:10:36;;;;;;;;;;;;;;;-4.73;100.00;102572.22;5088737;28;19912;-78
2021/12/21 06:26:03;;;;;;;;;;;;;;;-4.77;100.00;102578.22;5056427;28;20002;-77
2021/12/21 06:28:29;;;;;;;;;;;;;;;-4.82;100.00;102574.81;5070921;28;19916;-77
2021/12/21 06:30:54;;;;;;;;;;;;;;;-4.85;100.00;102572.28;5072765;28;19915;-77
2021/12/21 06:33:21;;;;;;;;;;;;;;;-4.86;100.00;102580.78;5088039;28;19912;-78
2021/12/21 06:35:47;;;;;;;;;;;;;;;-4.88;100.00;102580.78;5067917;28;20365;-77
2021/12/21 06:38:12;;;;;;;;;;;;;;;-4.87;100.00;102579.94;5071871;28;19959;-77
2021/12/21 06:40:37;;;;;;;;;;;;;;;-4.86;100.00;102576.53;5071397;28;19965;-77
2021/12/21 06:43:03;;;;;;;;;;;;;;;-4.84;100.00;102573.97;5054549;28;20421;-77
2021/12/21 06:45:43;;;;;;;;;;;;;;;-4.84;100.00;102576.53;5089306;28;19920;-78
2021/12/21 06:51:16;;;;;;;;;;;;;;;-4.87;100.00;102576.53;5073006;28;19942;-78
2021/12/21 06:53:43;;;;;;;;;;;;;;;-4.86;100.00;102573.13;5046376;28;19912;-77
2021/12/21 06:56:09;;;;;;;;;;;;;;;-4.86;100.00;102575.66;5052076;28;20275;-77
2021/12/21 06:58:35;;;;;;;;;;;;;;;-4.86;100.00;102580.78;5070991;28;19934;-77
2021/12/21 07:01:00;;;;;;;;;;;;;;;-4.86;100.00;102585.91;5068630;28;20546;-77
2021/12/21 07:03:26;;;;;;;;;;;;;;;-4.89;100.00;102586.78;5072449;28;19939;-77
2021/12/21 07:05:51;;;;;;;;;;;;;;;-4.90;100.00;102591.06;5055763;28;19916;-77
2021/12/21 07:08:22;;;;;;;;;;;;;;;-4.89;100.00;102586.78;5053892;28;19912;-79
2021/12/21 07:10:56;;;;;;;;;;;;;;;-4.89;100.00;102586.78;5056507;28;19919;-77
2021/12/21 07:18:50;;;;;;;;;;;;;;;-4.91;100.00;102593.63;5047958;28;19924;-77
2021/12/21 07:21:16;;;;;;;;;;;;;;;-4.91;100.00;102591.06;5036795;28;20335;-79
2021/12/21 07:23:41;;;;;;;;;;;;;;;-4.89;100.00;102590.19;5072925;28;19967;-77
2021/12/21 07:26:07;;;;;;;;;;;;;;;-4.89;100.00;102590.19;5070801;28;20309;-79
2021/12/21 07:28:33;;;;;;;;;;;;;;;-4.89;100.00;102586.78;5054537;28;19947;-77
2021/12/21 07:30:58;;;;;;;;;;;;;;;-4.89;100.00;102590.19;5069610;28;19962;-78
2021/12/21 07:33:24;;;;;;;;;;;;;;;-4.90;100.00;102592.75;5053827;28;19918;-77
2021/12/21 07:35:49;;;;;;;;;;;;;;;-4.91;100.00;102593.63;5071889;28;20002;-76
2021/12/21 07:38:15;;;;;;;;;;;;;;;-4.90;100.00;102593.63;5068850;28;20521;-78
2021/12/21 07:40:41;;;;;;;;;;;;;;;-4.90;100.00;102595.31;5087474;28;19962;-77
2021/12/21 07:43:06;;;;;;;;;;;;;;;-4.86;100.00;102603.84;5068911;28;19916;-76
2021/12/21 07:45:32;;;;;;;;;;;;;;;-4.87;100.00;102595.31;5069662;28;19920;-77
2021/12/21 07:47:58;;;;;;;;;;;;;;;-4.85;100.00;102597.88;5053695;28;19965;-79
2021/12/21 07:50:23;;;;;;;;;;;;;;;-4.81;100.00;102594.44;5067382;28;19916;-77
2021/12/21 07:52:51;;;;;;;;;;;;;;;-4.79;100.00;102592.72;5075506;28;19908;-77
2021/12/21 07:55:17;;;;;;;;;;;;;;;-4.76;100.00;102595.31;5073444;28;19919;-77
2021/12/21 07:57:43;;;;;;;;;;;;;;;-4.73;100.00;102597.84;5052905;28;19935;-77
2021/12/21 08:00:09;;;;;;;;;;;;;;;-4.73;100.00;102596.16;5053723;28;19920;-77
2021/12/21 08:02:40;;;;;;;;;;;;;;;-4.70;100.00;102597.84;5070730;28;20413;-79
2021/12/21 08:05:07;;;;;;;;;;;;;;;-4.65;100.00;102596.13;5057574;28;19981;-77
2021/12/21 08:07:37;;;;;;;;;;;;;;;-4.60;100.00;102604.63;5073485;28;19916;-77
2021/12/21 08:10:17;;;;;;;;;;;;;;;-4.56;100.00;102597.78;5056010;28;19919;-77
2021/12/21 08:12:43;;;;;;;;;;;;;;;-4.52;100.00;102609.72;5055416;28;19916;-77
2021/12/21 08:15:09;;;;;;;;;;;;;;;-4.47;100.00;102602.06;5072367;28;19912;-77
2021/12/21 08:17:34;;;;;;;;;;;;;;;-4.45;100.00;102603.75;5058845;28;19969;-77
2021/12/21 08:20:00;;;;;;;;;;;;;;;-4.41;100.00;102607.16;5089246;28;20010;-77
2021/12/21 08:22:25;;;;;;;;;;;;;;;-4.37;100.00;102611.41;5070407;28;19912;-76
2021/12/21 08:24:51;;;;;;;;;;;;;;;-4.36;100.00;102608.84;5057913;28;19923;-76
2021/12/21 08:27:16;;;;;;;;;;;;;;;-4.35;100.00;102605.44;5073475;28;19923;-77
2021/12/21 08:29:42;;;;;;;;;;;;;;;-4.35;100.00;102605.44;5058889;28;19911;-77
2021/12/21 08:32:08;;;;;;;;;;;;;;;-4.35;100.00;102604.56;5092386;28;19911;-77
2021/12/21 08:34:33;;;;;;;;;;;;;;;-4.38;100.00;102602.03;5057731;28;19924;-77
2021/12/21 08:36:59;;;;;;;;;;;;;;;-4.38;100.00;102604.59;5057208;28;20558;-76
2021/12/21 08:39:26;;;;;;;;;;;;;;;-4.41;100.00;102602.03;5040664;28;19923;-76
2021/12/21 08:41:57;;;;;;;;;;;;;;;-4.39;100.00;102603.75;5074272;28;19916;-76
2021/12/21 08:44:26;;;;;;;;;;;;;;;-4.39;100.00;102601.19;5072938;28;19916;-78
2021/12/21 08:46:52;;;;;;;;;;;;;;;-4.39;100.00;102600.31;5060254;28;19979;-77
2021/12/21 08:49:18;;;;;;;;;;;;;;;-4.37;100.00;102596.91;5054795;28;20382;-76
2021/12/21 08:51:43;;;;;;;;;;;;;;;-4.35;100.00;102595.19;5071337;28;19923;-79
2021/12/21 08:54:09;;;;;;;;;;;;;;;-4.31;100.00;102593.47;5038298;28;19947;-77
2021/12/21 08:56:34;;;;;;;;;;;;;;;-4.28;100.00;102595.16;5073592;28;20048;-77
2021/12/21 08:58:59;;;;;;;;;;;;;;;-4.20;100.00;102593.41;5073615;28;19926;-77
2021/12/21 09:01:25;;;;;;;;;;;;;;;-4.06;100.00;102595.94;5071794;28;20344;-77
2021/12/21 09:03:52;;;;;;;;;;;;;;;-3.93;100.00;102595.84;5056875;28;19915;-78
2021/12/21 09:06:18;;;;;;;;;;;;;;;-3.80;100.00;102594.06;5072012;28;19919;-78
2021/12/21 09:08:43;;;;;;;;;;;;;;;-3.64;100.00;102586.28;5090237;28;19915;-77
2021/12/21 09:11:09;;;;;;;;;;;;;;;-3.44;100.00;102592.13;5052598;28;19916;-76
2021/12/21 09:13:34;;;;;;;;;;;;;;;-3.30;100.00;102589.44;5088703;28;19912;-77
2021/12/21 09:16:00;;;;;;;;;;;;;;;-3.11;100.00;102591.88;5057347;28;19992;-77
2021/12/21 09:18:25;;;;;;;;;;;;;;;-2.97;100.00;102595.19;5070748;28;20548;-76
2021/12/21 09:20:51;;;;;;;;;;;;;;;-2.84;100.00;102589.06;5069314;28;19945;-76
2021/12/21 09:23:17;;;;;;;;;;;;;;;-2.68;100.00;102594.88;5053732;28;19927;-77
2021/12/21 09:25:42;;;;;;;;;;;;;;;-2.51;100.00;102596.44;5051900;28;20512;-77
2021/12/21 09:28:08;;;;;;;;;;;;;;;-2.33;100.00;102598.78;5038647;28;19965;-76
2021/12/21 09:30:33;;;;;;;;;;;;;;;-2.19;100.00;102602.03;5036028;28;19959;-77
2021/12/21 09:32:59;;;;;;;;;;;;;;;-2.07;100.00;102602.75;5087119;28;19912;-77
2021/12/21 09:35:25;;;;;;;;;;;;;;;-2.00;100.00;102602.69;5072242;28;19916;-77
2021/12/21 09:37:51;;;;;;;;;;;;;;;-1.90;100.00;102611.13;5055901;28;19916;-78
2021/12/21 09:40:18;;;;;;;;;;;;;;;-1.78;100.00;102607.53;5053623;28;19923;-75
2021/12/21 09:42:44;;;;;;;;;;;;;;;-1.69;100.00;102611.69;5035729;28;20070;-78
2021/12/21 09:45:10;;;;;;;;;;;;;;;-1.64;100.00;102605.63;5052755;28;20002;-76
2021/12/21 09:47:35;;;;;;;;;;;;;;;-1.58;100.00;102614.97;5071424;28;20014;-77
2021/12/21 09:50:03;;;;;;;;;;;;;;;-1.53;100.00;102620.88;5088087;28;19916;-76
2021/12/21 09:52:29;;;;;;;;;;;;;;;-1.52;100.00;102621.75;5053855;28;20018;-76
2021/12/21 09:54:55;;;;;;;;;;;;;;;-1.53;100.00;102622.59;5036564;28;19923;-77
2021/12/21 09:57:21;;;;;;;;;;;;;;;-1.50;100.00;102631.13;5069418;28;19916;-78
2021/12/21 09:59:50;;;;;;;;;;;;;;;-1.48;100.00;102629.38;5054449;28;19912;-75
2021/12/21 10:02:21;;;;;;;;;;;;;;;-1.44;100.00;102625.06;5053029;28;19920;-75
2021/12/21 10:04:51;;;;;;;;;;;;;;;-1.46;100.00;102625.06;5054891;28;20045;-77
2021/12/21 10:07:18;;;;;;;;;;;;;;;-1.40;100.00;102624.97;5086133;28;20332;-75
2021/12/21 10:09:46;;;;;;;;;;;;;;;-1.39;100.00;102628.41;5051370;28;19923;-77
2021/12/21 10:12:25;;;;;;;;;;;;;;;-1.42;100.00;102629.28;5067451;28;19912;-76
2021/12/21 10:14:59;;;;;;;;;;;;;;;-1.44;100.00;102623.31;5079887;28;19912;-75
2021/12/21 10:17:25;;;;;;;;;;;;;;;-1.46;100.00;102631.94;5069155;28;19963;-75
2021/12/21 10:19:50;;;;;;;;;;;;;;;-1.46;100.00;102631.94;5087724;28;20352;-76
2021/12/21 10:22:16;;;;;;;;;;;;;;;-1.50;100.00;102628.56;5064821;28;19916;-77
2021/12/21 10:24:49;;;;;;;;;;;;;;;-1.51;100.00;102632.00;5071174;28;19916;-77
2021/12/21 10:27:15;;;;;;;;;;;;;;;-1.51;100.00;102634.56;5052970;28;19916;-76
2021/12/21 10:29:44;;;;;;;;;;;;;;;-1.53;100.00;102633.75;5054681;28;20400;-76
2021/12/21 10:32:17;;;;;;;;;;;;;;;-1.51;100.00;102636.31;5069953;28;19950;-76
2021/12/21 10:34:50;;;;;;;;;;;;;;;-1.54;100.00;102628.63;5048639;28;19916;-77
2021/12/21 10:37:23;;;;;;;;;;;;;;;-1.50;100.00;102630.28;5069155;28;19924;-75
2021/12/21 10:39:49;;;;;;;;;;;;;;;-1.49;100.00;102619.13;5072305;28;19911;-76
2021/12/21 10:42:14;;;;;;;;;;;;;;;-1.41;100.00;102627.59;5068768;28;20417;-75
2021/12/21 10:44:44;;;;;;;;;;;;;;;-1.35;100.00;102624.91;5055246;28;19916;-76
2021/12/21 10:47:12;;;;;;;;;;;;;;;-1.28;100.00;102623.09;5071288;28;19915;-76
2021/12/21 10:49:39;;;;;;;;;;;;;;;-1.19;100.00;102623.81;5085876;28;19915;-76
2021/12/21 10:52:07;;;;;;;;;;;;;;;-1.18;100.00;102625.50;5054335;28;19915;-77
2021/12/21 10:54:32;;;;;;;;;;;;;;;-1.12;100.00;102624.53;5059077;28;19919;-77
2021/12/21 10:57:04;;;;;;;;;;;;;;;-1.04;100.00;102616.69;5056209;28;19915;-75
2021/12/21 10:59:31;;;;;;;;;;;;;;;-0.94;100.00;102612.22;5067376;28;19912;-76
2021/12/21 11:02:10;;;;;;;;;;;;;;;-0.90;100.00;102612.16;5070519;28;19918;-76
2021/12/21 11:04:47;;;;;;;;;;;;;;;-0.88;100.00;102604.41;5049394;28;20532;-76
2021/12/21 11:07:21;;;;;;;;;;;;;;;-0.77;100.00;102606.78;5068033;28;19923;-75
2021/12/21 11:10:14;;;;;;;;;;;;;;;-0.72;100.00;102603.25;5085379;28;20437;-75
2021/12/21 11:12:50;;;;;;;;;;;;;;;-0.63;100.00;102605.66;5080053;28;19916;-76
2021/12/21 11:15:17;;;;;;;;;;;;;;;-0.55;100.00;102604.66;5050889;28;19959;-77
2021/12/21 11:17:43;;;;;;;;;;;;;;;-0.50;100.00;102601.13;5053932;28;19924;-78
2021/12/21 11:20:09;;;;;;;;;;;;;;;-0.38;100.00;102596.59;5069174;28;19916;-76
2021/12/21 11:22:37;;;;;;;;;;;;;;;-0.24;100.00;102598.03;5055542;28;19919;-77
2021/12/21 11:25:04;;;;;;;;;;;;;;;-0.19;100.00;102595.34;5087041;28;20482;-76
2021/12/21 11:27:31;;;;;;;;;;;;;;;-0.15;100.00;102590.97;5069546;28;20382;-76
2021/12/21 11:30:01;;;;;;;;;;;;;;;-0.08;100.00;102588.22;5070972;28;19916;-76
2021/12/21 11:32:28;;;;;;;;;;;;;;;0.01;100.00;102581.19;5071901;28;19916;-77
2021/12/21 11:37:39;;;;;;;;;;;;;;;0.15;100.00;102584.31;5061628;28;19969;-77
2021/12/21 11:40:06;;;;;;;;;;;;;;;0.13;100.00;102581.78;5071676;28;19912;-77
2021/12/21 11:42:37;;;;;;;;;;;;;;;0.07;100.00;102579.31;5059828;28;19919;-76
2021/12/21 11:45:07;;;;;;;;;;;;;;;0.18;100.00;102579.91;5055898;28;20015;-77
2021/12/21 11:47:56;;;;;;;;;;;;;;;0.15;100.00;102580.00;5055635;28;20259;-76
2021/12/21 11:50:22;;;;;;;;;;;;;;;0.14;100.00;102570.56;5057491;28;20988;-76
2021/12/21 11:52:51;;;;;;;;;;;;;;;0.18;100.00;102561.00;5071081;28;19916;-78
2021/12/21 11:55:19;;;;;;;;;;;;;;;0.14;100.00;102564.56;5071861;28;20296;-78
2021/12/21 11:57:49;;;;;;;;;;;;;;;0.29;100.00;102566.78;5074407;28;19924;-76
2021/12/21 12:00:18;;;;;;;;;;;;;;;0.33;100.00;102567.56;5072223;28;20301;-77
2021/12/21 12:02:45;;;;;;;;;;;;;;;0.32;100.00;102566.72;5053059;28;19916;-77
2021/12/21 12:05:21;;;;;;;;;;;;;;;0.32;100.00;102560.69;5055439;28;19916;-77
2021/12/21 12:07:58;;;;;;;;;;;;;;;0.36;100.00;102559.75;5034540;28;19923;-77
2021/12/21 12:10:23;;;;;;;;;;;;;;;0.37;100.00;102556.28;5038807;28;19912;-78
2021/12/21 12:12:49;;;;;;;;;;;;;;;0.39;100.00;102555.34;5057849;28;20266;-76
2021/12/21 12:15:15;;;;;;;;;;;;;;;0.43;100.00;102557.84;5051413;28;19923;-77
2021/12/21 12:17:46;;;;;;;;;;;;;;;0.46;100.00;102552.63;5039611;28;20432;-76
2021/12/21 12:20:11;;;;;;;;;;;;;;;0.48;100.00;102551.69;5070269;28;19907;-77
2021/12/21 12:22:38;;;;;;;;;;;;;;;0.50;100.00;102551.66;5070258;28;20343;-76
2021/12/21 12:25:05;;;;;;;;;;;;;;;0.51;100.00;102551.63;5037508;28;19995;-78
2021/12/21 12:27:31;;;;;;;;;;;;;;;0.51;100.00;102543.91;5052583;28;19916;-78
2021/12/21 12:29:58;;;;;;;;;;;;;;;0.52;100.00;102545.56;5072730;28;19930;-77
2021/12/21 12:32:35;;;;;;;;;;;;;;;0.53;100.00;102554.19;5072031;28;19963;-77
2021/12/21 12:35:12;;;;;;;;;;;;;;;0.55;100.00;102540.34;5069549;28;19922;-77
2021/12/21 12:37:57;;;;;;;;;;;;;;;0.55;100.00;102536.91;5057043;28;19920;-77
2021/12/21 12:40:25;;;;;;;;;;;;;;;0.55;100.00;102537.75;5072016;28;19941;-78
2021/12/21 12:43:08;;;;;;;;;;;;;;;0.54;100.00;102537.78;5073127;28;20302;-77
2021/12/21 12:45:36;;;;;;;;;;;;;;;0.52;100.00;102543.00;5070772;28;20011;-75
2021/12/21 12:48:03;;;;;;;;;;;;;;;0.49;100.00;102542.22;5057366;28;19938;-78
2021/12/21 12:50:30;;;;;;;;;;;;;;;0.49;100.00;102544.78;5040371;28;19995;-76
2021/12/21 12:52:57;;;;;;;;;;;;;;;0.46;100.00;102548.31;5051488;28;19916;-77
2021/12/21 12:55:23;;;;;;;;;;;;;;;0.48;100.00;102549.13;5071149;28;19962;-78
2021/12/21 12:57:50;;;;;;;;;;;;;;;0.44;100.00;102557.84;5056708;28;19920;-76
2021/12/21 13:00:15;;;;;;;;;;;;;;;0.45;100.00;102559.50;5070448;28;19922;-77
2021/12/21 13:02:56;;;;;;;;;;;;;;;0.42;100.00;102558.75;5073399;28;19916;-77
2021/12/21 13:05:35;;;;;;;;;;;;;;;0.47;100.00;102555.19;5054927;28;19916;-76
2021/12/21 13:08:11;;;;;;;;;;;;;;;0.45;100.00;102551.75;5073972;28;19931;-76
2021/12/21 13:10:38;;;;;;;;;;;;;;;0.41;100.00;102557.06;5071648;28;19916;-77
2021/12/21 13:13:03;;;;;;;;;;;;;;;0.33;100.00;102557.22;5088685;28;19923;-76
2021/12/21 13:15:48;;;;;;;;;;;;;;;0.28;100.00;102549.59;5055328;28;19913;-78
2021/12/21 13:18:18;;;;;;;;;;;;;;;0.26;100.00;102551.34;5071060;28;19927;-77
2021/12/21 13:20:45;;;;;;;;;;;;;;;0.26;100.00;102551.34;5065885;28;20580;-77
2021/12/21 13:23:12;;;;;;;;;;;;;;;0.32;100.00;102553.81;5087536;28;19959;-78
2021/12/21 13:25:38;;;;;;;;;;;;;;;0.53;100.00;102549.88;5072023;28;20274;-79
2021/12/21 13:28:10;;;;;;;;;;;;;;;0.63;100.00;102547.91;5071758;28;19927;-76
2021/12/21 13:30:36;;;;;;;;;;;;;;;0.68;100.00;102545.19;5070862;28;19938;-79
2021/12/21 13:33:02;;;;;;;;;;;;;;;0.70;100.00;102539.13;5073973;28;19912;-77
2021/12/21 13:35:29;;;;;;;;;;;;;;;0.76;100.00;102541.53;5072342;28;19965;-77